Time;durP1;ratioP1;P1;durP2;ratioP2;P2;SDS_P1;SDS_P2;PMS_P1;PMS_P2;Temp;Humidity;BMP_temperature;BMP_pressure;BME280_temperature;BME280_humidity;BME280_pressure;Samples;Min_cycle;Max_cycle;Signal;HPM_P1;HPM_P2
2022/08/19 00:00:57;;;;;;;14.13;12.83;;;;;;;19.55;84.30;101164.63;5220698;28;20036;-82
2022/08/19 00:03:28;;;;;;;15.93;13.77;;;;;;;19.53;84.85;101164.69;5219948;28;20044;-82
2022/08/19 00:05:59;;;;;;;15.07;13.57;;;;;;;19.54;84.31;101161.09;5220120;28;20151;-82
2022/08/19 00:08:31;;;;;;;15.73;14.23;;;;;;;19.50;84.80;101162.19;5220343;28;20026;-82
2022/08/19 00:11:02;;;;;;;14.73;13.53;;;;;;;19.55;84.99;101161.97;5219621;28;20040;-82
2022/08/19 00:13:34;;;;;;;17.47;15.90;;;;;;;19.38;85.91;101158.28;5219481;28;20446;-82
2022/08/19 00:16:06;;;;;;;17.43;15.90;;;;;;;19.30;86.63;101156.00;5219887;28;20121;-83
2022/08/19 00:18:38;;;;;;;16.85;15.38;;;;;;;19.18;86.90;101153.88;5202213;28;20076;-82
2022/08/19 00:21:09;;;;;;;16.73;15.33;;;;;;;19.15;87.10;101156.63;5220439;28;20439;-82
2022/08/19 00:23:42;;;;;;;19.13;17.53;;;;;;;19.25;87.83;101155.31;5202372;28;20471;-82
2022/08/19 00:26:14;;;;;;;19.23;17.52;;;;;;;19.17;87.88;101161.84;5220001;28;20037;-82
2022/08/19 00:28:46;;;;;;;19.80;18.00;;;;;;;19.15;87.91;101158.44;5202316;28;20026;-82
2022/08/19 00:31:18;;;;;;;;;;;;;;;19.34;85.59;101155.84;5220295;28;20057;-82
2022/08/19 00:33:50;;;;;;;22.23;20.23;;;;;;;19.13;87.63;101156.69;5219675;28;20008;-83
2022/08/19 00:36:21;;;;;;;21.13;18.77;;;;;;;19.29;87.27;101158.69;5219705;28;20167;-82
2022/08/19 00:38:53;;;;;;;21.73;19.87;;;;;;;19.09;88.01;101164.81;5219872;28;20030;-82
2022/08/19 00:41:25;;;;;;;22.63;20.37;;;;;;;19.11;88.08;101166.47;5219996;28;20022;-83
2022/08/19 00:44:05;;;;;;;21.13;19.13;;;;;;;19.16;87.84;101170.69;5220403;28;20431;-82
2022/08/19 00:46:39;;;;;;;21.13;18.95;;;;;;;19.17;87.39;101169.78;5203222;28;20053;-82
2022/08/19 00:49:40;;;;;;;22.48;20.58;;;;;;;18.93;89.30;101172.53;5221906;28;20044;-82
2022/08/19 00:52:16;;;;;;;23.65;21.55;;;;;;;18.71;90.35;101164.63;5222189;28;20057;-82
2022/08/19 00:54:48;;;;;;;23.85;21.20;;;;;;;18.94;90.18;101169.81;5223858;28;20033;-83
2022/08/19 00:57:27;;;;;;;23.80;21.70;;;;;;;18.90;90.62;101170.00;5223598;28;20375;-83
2022/08/19 01:00:00;;;;;;;23.45;21.35;;;;;;;18.81;90.78;101162.47;5223320;28;20033;-82
2022/08/19 01:02:32;;;;;;;;;;;;;;;18.92;88.07;101166.41;5223586;28;20033;-82
2022/08/19 01:05:07;;;;;;;25.25;22.77;;;;;;;18.84;90.04;101157.09;5222865;28;19913;-82
2022/08/19 01:07:40;;;;;;;24.80;22.48;;;;;;;18.89;90.19;101161.22;5223055;28;20164;-81
2022/08/19 01:10:15;;;;;;;23.77;21.48;;;;;;;18.74;90.86;101167.09;5222931;28;20037;-85
2022/08/19 01:12:49;;;;;;;24.33;22.23;;;;;;;18.67;91.10;101173.56;5223843;28;20112;-83
2022/08/19 01:15:26;;;;;;;25.85;23.45;;;;;;;18.65;91.65;101176.28;5223140;28;20030;-83
2022/08/19 01:18:03;;;;;;;24.83;22.58;;;;;;;18.55;91.83;101175.78;5223571;28;20030;-82
2022/08/19 01:20:35;;;;;;;25.33;23.17;;;;;;;18.56;92.45;101169.59;5223161;28;20089;-82
2022/08/19 01:23:07;;;;;;;27.40;24.83;;;;;;;18.45;92.78;101155.97;5223007;28;20065;-82
2022/08/19 01:25:46;;;;;;;25.03;22.80;;;;;;;18.48;92.73;101157.59;5223215;28;20030;-83
2022/08/19 01:28:27;;;;;;;25.95;23.63;;;;;;;18.34;93.05;101161.66;5223415;28;20024;-82
2022/08/19 01:30:59;;;;;;;25.70;23.20;;;;;;;18.29;93.83;101160.09;5223378;28;20129;-83
2022/08/19 01:33:30;;;;;;;25.07;22.77;;;;;;;18.31;93.92;101158.28;5205203;28;20076;-82
2022/08/19 01:36:09;;;;;;;25.27;22.63;;;;;;;18.28;94.46;101164.53;5223166;28;20614;-82
2022/08/19 01:38:43;;;;;;;25.13;22.50;;;;;;;18.21;94.53;101160.44;5222819;28;20034;-82
2022/08/19 01:41:17;;;;;;;27.02;24.52;;;;;;;18.12;95.27;101158.97;5222670;28;20089;-81
2022/08/19 01:43:50;;;;;;;25.38;23.05;;;;;;;18.11;94.87;101165.19;5204789;28;20040;-82
2022/08/19 01:46:21;;;;;;;27.10;24.60;;;;;;;18.09;95.29;101153.81;5222174;28;20026;-82
2022/08/19 01:48:53;;;;;;;27.57;25.13;;;;;;;18.05;95.38;101149.59;5222962;28;20066;-83
2022/08/19 01:51:24;;;;;;;27.47;24.87;;;;;;;18.04;95.55;101153.16;5222736;28;20034;-84
2022/08/19 01:53:56;;;;;;;26.60;24.17;;;;;;;18.21;95.14;101152.50;5222303;28;20195;-83
2022/08/19 01:56:28;;;;;;;27.42;24.65;;;;;;;18.02;95.30;101163.75;5222518;28;20470;-82
2022/08/19 01:59:08;;;;;;;26.80;24.30;;;;;;;18.01;95.61;101164.66;5222724;28;20184;-83
2022/08/19 02:01:40;;;;;;;26.77;24.25;;;;;;;17.84;95.64;101165.28;5221639;28;20041;-83
2022/08/19 02:04:11;;;;;;;27.20;24.90;;;;;;;18.10;95.33;101165.25;5222128;28;20038;-83
2022/08/19 02:06:43;;;;;;;28.10;25.50;;;;;;;17.97;95.07;101163.06;5204698;28;20459;-83
2022/08/19 02:09:16;;;;;;;26.63;24.13;;;;;;;18.00;95.06;101159.44;5222429;28;20164;-83
2022/08/19 02:11:47;;;;;;;28.45;25.48;;;;;;;17.87;95.44;101174.88;5204565;28;20041;-84
2022/08/19 02:14:18;;;;;;;27.37;24.83;;;;;;;17.91;95.03;101179.13;5222181;28;20061;-83
2022/08/19 02:16:50;;;;;;;27.50;24.80;;;;;;;18.11;94.60;101191.59;5222121;28;20041;-83
2022/08/19 02:19:22;;;;;;;29.03;25.73;;;;;;;17.95;94.45;101185.13;5221779;28;20490;-83
2022/08/19 02:21:53;;;;;;;26.23;23.65;;;;;;;18.00;94.52;101176.16;5221474;28;20026;-84
2022/08/19 02:24:25;;;;;;;27.97;25.10;;;;;;;17.95;94.56;101188.66;5221736;28;20387;-83
2022/08/19 02:26:58;;;;;;;24.73;22.42;;;;;;;18.13;93.46;101181.81;5222154;28;20475;-83
2022/08/19 02:29:29;;;;;;;26.55;24.00;;;;;;;17.82;93.96;101185.59;5204242;28;20318;-83
2022/08/19 02:32:01;;;;;;;28.10;25.63;;;;;;;17.81;94.23;101189.13;5221691;28;20041;-82
2022/08/19 02:34:33;;;;;;;27.90;25.30;;;;;;;17.81;94.00;101197.03;5221277;28;20049;-84
2022/08/19 02:37:04;;;;;;;28.17;25.30;;;;;;;17.83;94.34;101197.81;5221481;28;20119;-83
2022/08/19 02:39:35;;;;;;;28.27;25.53;;;;;;;17.72;94.13;101194.72;5221890;28;20034;-88
2022/08/19 02:42:07;;;;;;;29.20;26.30;;;;;;;17.67;94.08;101196.66;5221718;28;20041;-83
2022/08/19 02:44:38;;;;;;;27.27;24.57;;;;;;;17.70;94.51;101193.06;5203768;28;20034;-83
2022/08/19 02:47:10;;;;;;;27.10;24.27;;;;;;;17.62;94.97;101196.81;5221449;28;20046;-83
2022/08/19 02:49:41;;;;;;;27.13;24.60;;;;;;;17.59;94.71;101199.56;5221027;28;20094;-83
2022/08/19 02:52:13;;;;;;;27.57;24.93;;;;;;;17.71;94.84;101205.31;5221378;28;20276;-83
2022/08/19 02:54:45;;;;;;;25.80;23.35;;;;;;;17.76;94.44;101204.25;5203478;28;20033;-82
2022/08/19 02:57:17;;;;;;;26.25;23.63;;;;;;;17.74;94.31;101198.19;5221515;28;20467;-83
2022/08/19 02:59:48;;;;;;;28.07;25.40;;;;;;;17.65;93.99;101212.53;5221094;28;20045;-82
2022/08/19 03:02:19;;;;;;;28.07;25.33;;;;;;;17.59;94.00;101204.00;5205182;28;20033;-82
2022/08/19 03:04:51;;;;;;;27.83;25.00;;;;;;;17.65;93.78;101203.78;5206615;28;20062;-82
2022/08/19 03:07:22;;;;;;;26.23;23.73;;;;;;;17.58;94.27;101197.88;5220782;28;20515;-82
2022/08/19 03:09:54;;;;;;;24.67;22.13;;;;;;;17.56;93.72;101194.41;5220989;28;20121;-83
2022/08/19 03:12:25;;;;;;;25.10;22.80;;;;;;;17.65;93.17;101193.25;5220809;28;20121;-82
2022/08/19 03:14:57;;;;;;;26.30;23.10;;;;;;;17.57;93.67;101198.78;5220771;28;20487;-82
2022/08/19 03:17:28;;;;;;;26.40;24.00;;;;;;;17.58;93.62;101205.78;5202822;28;20029;-82
2022/08/19 03:20:00;;;;;;;28.77;26.03;;;;;;;17.47;94.17;101203.50;5220705;28;20037;-82
2022/08/19 03:22:31;;;;;;;28.93;26.27;;;;;;;17.61;94.11;101210.06;5220593;28;20026;-82
2022/08/19 03:25:03;;;;;;;29.93;27.13;;;;;;;17.47;93.60;101207.94;5221018;28;20084;-82
2022/08/19 03:27:34;;;;;;;30.38;27.58;;;;;;;17.35;94.54;101201.28;5220407;28;20097;-82
2022/08/19 03:30:06;;;;;;;29.77;26.87;;;;;;;17.56;94.17;101198.81;5221380;28;20073;-82
2022/08/19 03:32:38;;;;;;;29.58;26.95;;;;;;;17.54;93.86;101203.31;5220945;28;20156;-83
2022/08/19 03:35:09;;;;;;;29.53;26.70;;;;;;;17.42;93.58;101201.94;5220286;28;20112;-80
2022/08/19 03:37:41;;;;;;;32.20;29.30;;;;;;;17.43;94.38;101203.66;5220444;28;20297;-80
2022/08/19 03:40:12;;;;;;;31.30;28.03;;;;;;;17.29;94.13;101198.84;5220060;28;20073;-80
2022/08/19 03:42:44;;;;;;;30.53;27.73;;;;;;;17.42;94.25;101192.28;5219973;28;20072;-80
2022/08/19 03:45:16;;;;;;;31.53;28.37;;;;;;;17.47;93.93;101185.06;5220949;28;20360;-80
2022/08/19 03:47:47;;;;;;;30.02;27.33;;;;;;;17.24;94.20;101188.50;5220395;28;20053;-82
2022/08/19 03:50:19;;;;;;;30.30;27.20;;;;;;;17.42;93.66;101192.28;5220786;28;20040;-81
2022/08/19 03:52:51;;;;;;;33.38;30.15;;;;;;;17.25;94.47;101184.09;5219882;28;20042;-82
2022/08/19 03:55:23;;;;;;;34.15;31.05;;;;;;;17.26;94.32;101184.03;5220333;28;20133;-81
2022/08/19 03:57:54;;;;;;;35.87;32.67;;;;;;;17.22;95.55;101182.41;5220147;28;20117;-81
2022/08/19 04:00:26;;;;;;;39.03;35.03;;;;;;;17.02;95.85;101188.38;5203160;28;20083;-81
2022/08/19 04:02:57;;;;;;;38.03;34.50;;;;;;;16.99;96.29;101195.50;5219895;28;20066;-82
2022/08/19 04:05:28;;;;;;;37.17;33.87;;;;;;;17.17;96.60;101186.97;5202604;28;20438;-81
2022/08/19 04:08:00;;;;;;;37.47;33.97;;;;;;;17.10;96.75;101194.22;5220134;28;20087;-80
2022/08/19 04:10:36;;;;;;;39.40;35.33;;;;;;;17.13;96.80;101183.59;5220598;28;20037;-81
2022/08/19 04:13:08;;;;;;;39.10;35.10;;;;;;;17.18;96.52;101186.06;5220781;28;20033;-81
2022/08/19 04:15:41;;;;;;;38.47;34.83;;;;;;;17.14;96.60;101185.28;5220818;28;20486;-81
2022/08/19 04:18:13;;;;;;;39.30;35.40;;;;;;;17.08;96.69;101182.91;5220510;28;20038;-80
2022/08/19 04:20:47;;;;;;;39.47;35.88;;;;;;;17.16;96.44;101190.50;5220456;28;20034;-81
2022/08/19 04:23:18;;;;;;;40.65;36.65;;;;;;;17.19;96.50;101189.56;5220931;28;20497;-80
2022/08/19 04:25:50;;;;;;;41.20;37.03;;;;;;;17.09;96.22;101189.88;5224788;28;20034;-81
2022/08/19 04:28:22;;;;;;;42.40;38.10;;;;;;;17.04;96.80;101186.53;5207395;28;20033;-81
2022/08/19 04:30:55;;;;;;;40.40;36.50;;;;;;;17.06;96.46;101174.16;5224465;28;20042;-81
2022/08/19 04:33:28;;;;;;;;;;;;;;;17.14;95.40;101182.66;5224415;28;20041;-82
2022/08/19 04:36:00;;;;;;;40.85;36.63;;;;;;;17.13;95.88;101174.84;5224123;28;19913;-81
2022/08/19 04:38:31;;;;;;;42.23;37.70;;;;;;;17.02;96.47;101175.19;5223894;28;20061;-81
2022/08/19 04:43:53;;;;;;;42.47;38.05;;;;;;;17.05;96.35;101182.09;5223891;28;20030;-83
2022/08/19 04:46:24;;;;;;;43.27;38.87;;;;;;;17.01;96.49;101178.72;5223358;28;20585;-80
2022/08/19 04:48:56;;;;;;;44.87;40.00;;;;;;;16.83;96.56;101174.91;5223978;28;20412;-81
2022/08/19 04:51:30;;;;;;;44.15;39.60;;;;;;;16.65;97.07;101175.50;5223602;28;20119;-80
2022/08/19 04:54:03;;;;;;;46.50;41.40;;;;;;;16.64;98.02;101184.31;5223606;28;20030;-81
2022/08/19 04:56:34;;;;;;;;;;;;;;;16.76;96.25;101189.19;5224183;28;20026;-79
2022/08/19 04:59:06;;;;;;;45.63;40.80;;;;;;;16.50;98.19;101190.88;5223849;28;19924;-80
2022/08/19 05:01:38;;;;;;;48.03;42.55;;;;;;;16.54;98.87;101191.63;5223371;28;20030;-80
2022/08/19 05:04:09;;;;;;;44.00;39.40;;;;;;;16.52;98.84;101198.72;5223801;28;20061;-80
2022/08/19 05:06:40;;;;;;;52.27;42.77;;;;;;;16.61;99.06;101203.69;5223372;28;20042;-80
2022/08/19 05:09:12;;;;;;;50.30;44.77;;;;;;;16.54;99.29;101200.38;5205614;28;20088;-80
2022/08/19 05:11:44;;;;;;;51.17;44.83;;;;;;;16.48;99.42;101202.34;5222997;28;20033;-80
2022/08/19 05:14:15;;;;;;;47.70;42.13;;;;;;;16.59;99.54;101208.13;5223037;28;20034;-80
2022/08/19 05:16:47;;;;;;;50.88;45.10;;;;;;;16.54;99.87;101207.41;5223056;28;20018;-79
2022/08/19 05:25:00;;;;;;;57.00;48.63;;;;;;;16.52;100.00;101230.31;5223354;28;20038;-80
2022/08/19 05:27:32;;;;;;;56.53;50.28;;;;;;;16.50;100.00;101232.97;5223258;28;20040;-80
2022/08/19 05:30:04;;;;;;;62.38;50.70;;;;;;;16.58;100.00;101230.97;5223113;28;20030;-79
2022/08/19 05:32:36;;;;;;;64.32;51.47;;;;;;;16.53;100.00;101232.00;5222579;28;20038;-79
2022/08/19 05:35:09;;;;;;;61.00;50.77;;;;;;;16.69;100.00;101238.50;5204316;28;20041;-80
2022/08/19 05:37:40;;;;;;;60.58;50.92;;;;;;;16.72;100.00;101243.69;5222768;28;20280;-79
2022/08/19 05:40:11;;;;;;;67.17;53.57;;;;;;;16.80;100.00;101247.88;5223480;28;20030;-79
2022/08/19 05:42:43;;;;;;;64.30;53.87;;;;;;;16.78;100.00;101254.03;5223015;28;20034;-79
2022/08/19 05:45:14;;;;;;;64.93;54.47;;;;;;;16.76;100.00;101247.09;5223676;28;20033;-80
2022/08/19 05:47:46;;;;;;;63.47;53.53;;;;;;;16.74;100.00;101247.16;5225180;28;20069;-79
2022/08/19 05:50:18;;;;;;;61.55;52.53;;;;;;;16.77;100.00;101246.19;5226773;28;20451;-79
2022/08/19 05:52:50;;;;;;;60.53;51.90;;;;;;;16.80;100.00;101250.50;5226114;28;20034;-78
2022/08/19 05:55:22;;;;;;;62.67;51.23;;;;;;;16.81;99.92;101253.09;5208126;28;20125;-79
2022/08/19 05:57:53;;;;;;;61.00;52.92;;;;;;;16.80;100.00;101253.13;5223950;28;20065;-79
2022/08/19 06:00:24;;;;;;;60.97;52.80;;;;;;;16.72;100.00;101242.84;5206927;28;20440;-79
2022/08/19 06:02:59;;;;;;;61.87;50.57;;;;;;;16.72;99.86;101233.16;5223603;28;20025;-80
2022/08/19 06:05:30;;;;;;;62.97;51.72;;;;;;;16.63;99.88;101235.22;5223490;28;20068;-80
2022/08/19 06:08:02;;;;;;;63.40;51.13;;;;;;;16.61;99.84;101234.41;5222885;28;20034;-79
2022/08/19 06:10:33;;;;;;;59.63;48.70;;;;;;;16.73;100.00;101232.25;5204877;28;20025;-80
2022/08/19 06:13:05;;;;;;;61.63;50.17;;;;;;;16.78;99.98;101232.97;5222360;28;20136;-80
2022/08/19 06:15:36;;;;;;;59.90;48.95;;;;;;;16.83;99.63;101224.94;5222620;28;20041;-80
2022/08/19 06:18:08;;;;;;;56.43;46.93;;;;;;;16.79;98.75;101225.91;5222001;28;20025;-80
2022/08/19 06:20:40;;;;;;;57.37;48.87;;;;;;;16.86;99.21;101231.91;5222839;28;20491;-80
2022/08/19 06:23:12;;;;;;;54.88;46.30;;;;;;;16.94;98.97;101232.53;5205283;28;20463;-78
2022/08/19 06:25:43;;;;;;;51.97;44.93;;;;;;;17.04;98.76;101235.72;5223365;28;20072;-79
2022/08/19 06:28:14;;;;;;;55.47;44.77;;;;;;;17.02;98.12;101235.78;5222904;28;20037;-80
2022/08/19 06:30:46;;;;;;;53.43;45.27;;;;;;;17.03;98.11;101226.09;5223235;28;20029;-79
2022/08/19 06:33:17;;;;;;;55.87;45.50;;;;;;;17.05;97.78;101237.41;5223254;28;20548;-79
2022/08/19 06:35:48;;;;;;;55.33;43.10;;;;;;;17.09;98.20;101229.38;5223037;28;20099;-78
2022/08/19 06:38:23;;;;;;;52.73;43.90;;;;;;;17.10;98.24;101233.75;5223354;28;20037;-79
2022/08/19 06:41:05;;;;;;;53.25;43.25;;;;;;;17.25;98.65;101226.25;5223329;28;20073;-80
2022/08/19 06:43:37;;;;;;;50.20;43.25;;;;;;;17.29;98.00;101231.38;5203750;28;20022;-78
2022/08/19 06:46:13;;;;;;;50.20;40.67;;;;;;;17.37;97.80;101233.75;5221629;28;20038;-78
2022/08/19 06:48:45;;;;;;;53.95;42.90;;;;;;;17.48;98.49;101236.00;5222556;28;20050;-79
2022/08/19 06:51:20;;;;;;;55.08;41.97;;;;;;;17.59;98.52;101238.25;5221695;28;20046;-79
2022/08/19 06:53:54;;;;;;;51.63;41.22;;;;;;;17.64;97.51;101234.53;5204806;28;20543;-79
2022/08/19 06:56:34;;;;;;;48.63;39.28;;;;;;;17.80;96.93;101239.28;5221452;28;20048;-79
2022/08/19 06:59:11;;;;;;;49.15;39.10;;;;;;;17.80;96.56;101245.41;5221753;28;20084;-79
2022/08/19 07:01:48;;;;;;;46.83;38.30;;;;;;;17.77;95.95;101242.88;5221146;28;20053;-80
2022/08/19 07:04:22;;;;;;;47.88;37.85;;;;;;;17.96;96.67;101229.91;5221489;28;20038;-79
2022/08/19 07:07:05;;;;;;;46.55;38.63;;;;;;;17.94;95.84;101241.47;5221788;28;20034;-80
2022/08/19 07:09:39;;;;;;;53.75;37.33;;;;;;;17.99;96.05;101232.44;5204061;28;20117;-81
2022/08/19 07:12:14;;;;;;;43.88;36.33;;;;;;;18.06;95.99;101230.44;5221575;28;20104;-80
2022/08/19 07:14:46;;;;;;;48.47;37.10;;;;;;;18.26;96.33;101236.75;5221785;28;20471;-79
2022/08/19 07:17:19;;;;;;;41.92;33.22;;;;;;;18.40;95.78;101240.59;5223085;28;20068;-80
2022/08/19 07:19:51;;;;;;;40.00;32.42;;;;;;;18.53;94.61;101241.00;5204594;28;20034;-80
2022/08/19 07:22:23;;;;;;;42.05;34.30;;;;;;;18.59;93.25;101253.97;5204701;28;20056;-78
2022/08/19 07:24:54;;;;;;;43.10;35.43;;;;;;;18.62;93.50;101239.75;5204592;28;20387;-79
2022/08/19 07:27:25;;;;;;;42.80;34.23;;;;;;;18.71;92.42;101251.75;5222388;28;20095;-79
2022/08/19 07:29:57;;;;;;;40.70;34.10;;;;;;;18.87;92.71;101257.28;5221734;28;20034;-79
2022/08/19 07:32:30;;;;;;;40.83;33.90;;;;;;;19.03;90.93;101255.78;5220671;28;20030;-79
2022/08/19 07:35:03;;;;;;;40.17;32.05;;;;;;;19.20;90.46;101263.00;5220475;28;20080;-79
2022/08/19 07:37:36;;;;;;;37.08;31.23;;;;;;;19.31;90.61;101257.28;5220457;28;20081;-79
2022/08/19 07:40:08;;;;;;;39.97;34.17;;;;;;;19.42;90.54;101255.03;5221006;28;20057;-79
2022/08/19 07:42:39;;;;;;;43.83;36.30;;;;;;;19.39;88.76;101263.09;5220903;28;20133;-79
2022/08/19 07:45:11;;;;;;;43.13;36.73;;;;;;;19.28;89.06;101265.34;5220827;28;20133;-79
2022/08/19 07:47:42;;;;;;;48.75;36.67;;;;;;;19.28;89.96;101271.47;5220903;28;20062;-80
2022/08/19 07:50:14;;;;;;;48.00;40.37;;;;;;;19.27;90.26;101282.09;5221476;28;20062;-80
2022/08/19 07:52:46;;;;;;;45.00;38.17;;;;;;;19.39;90.30;101283.41;5187011;28;20038;-80
2022/08/19 07:55:24;;;;;;;50.22;43.25;;;;;;;19.33;89.38;101287.16;5203630;28;20034;-80
2022/08/19 07:57:55;;;;;;;47.80;42.67;;;;;;;19.38;89.60;101285.16;5220315;28;20033;-80
2022/08/19 08:00:26;;;;;;;50.93;45.27;;;;;;;19.22;88.68;101284.94;5221195;28;20041;-80
2022/08/19 08:02:58;;;;;;;49.60;43.70;;;;;;;19.19;89.21;101284.22;5221228;28;20109;-78
2022/08/19 08:11:17;;;;;;;50.70;45.28;;;;;;;19.08;91.21;101292.59;5194742;28;20061;-80
2022/08/19 08:13:49;;;;;;;51.40;45.92;;;;;;;19.11;90.43;101297.72;5222231;28;20026;-79
2022/08/19 08:16:20;;;;;;;50.25;44.92;;;;;;;19.16;91.31;101294.91;5204215;28;20104;-80
2022/08/19 08:18:51;;;;;;;50.20;44.93;;;;;;;19.22;90.18;101295.50;5221380;28;20041;-79
2022/08/19 08:21:23;;;;;;;50.93;45.57;;;;;;;19.17;90.29;101294.00;5221522;28;20093;-80
2022/08/19 08:23:55;;;;;;;48.93;43.93;;;;;;;19.18;90.18;101298.38;5204236;28;20049;-80
2022/08/19 08:26:26;;;;;;;49.85;44.72;;;;;;;19.16;89.78;101298.44;5205765;28;20030;-78
2022/08/19 08:28:58;;;;;;;51.57;46.07;;;;;;;19.19;90.53;101303.59;5223336;28;20494;-78
2022/08/19 08:31:30;;;;;;;49.00;43.70;;;;;;;19.21;90.00;101312.31;5225196;28;20415;-79
2022/08/19 08:34:01;;;;;;;50.37;44.93;;;;;;;19.40;90.41;101311.53;5223031;28;20042;-79
2022/08/19 08:36:35;;;;;;;50.47;45.00;;;;;;;19.52;89.64;101308.41;5226418;28;20034;-79
2022/08/19 08:39:10;;;;;;;48.63;43.63;;;;;;;19.57;88.91;101314.34;5212464;28;20522;-78
2022/08/19 08:41:41;;;;;;;47.67;42.97;;;;;;;19.77;89.78;101312.66;5226611;28;20387;-79
2022/08/19 08:44:31;;;;;;;48.13;43.17;;;;;;;19.72;87.52;101327.84;5230923;28;20108;-79
2022/08/19 08:47:10;;;;;;;48.72;43.67;;;;;;;19.88;88.64;101326.28;5205915;28;20146;-80
2022/08/19 08:49:45;;;;;;;47.30;41.22;;;;;;;20.13;88.06;101325.25;5202736;28;20088;-79
2022/08/19 08:52:26;;;;;;;46.97;37.72;;;;;;;20.27;86.40;101336.06;5219782;28;20030;-79
2022/08/19 08:55:03;;;;;;;37.78;33.85;;;;;;;20.32;85.51;101335.88;5219653;28;20029;-78
2022/08/19 08:57:40;;;;;;;37.25;32.92;;;;;;;20.22;84.58;101327.44;5220792;28;20030;-81
2022/08/19 09:00:17;;;;;;;37.00;32.50;;;;;;;20.18;84.39;101324.09;5221476;28;20040;-80
2022/08/19 09:02:48;;;;;;;39.25;34.97;;;;;;;20.11;83.87;101316.47;5222921;28;20034;-81
2022/08/19 09:05:22;;;;;;;37.93;33.87;;;;;;;20.33;86.85;101319.03;5219662;28;20030;-79
2022/08/19 09:07:53;;;;;;;38.35;34.50;;;;;;;20.44;85.09;101321.22;5219883;28;20080;-81
2022/08/19 09:10:38;;;;;;;36.37;32.53;;;;;;;20.46;83.34;101316.69;5221416;28;20030;-80
2022/08/19 09:13:36;;;;;;;38.20;34.00;;;;;;;20.68;83.95;101316.59;5223240;28;20435;-80
2022/08/19 09:16:20;;;;;;;39.53;34.08;;;;;;;20.85;83.38;101315.78;5224074;28;20026;-79
2022/08/19 09:18:57;;;;;;;43.47;37.10;;;;;;;20.65;81.32;101324.69;5224165;28;20438;-79
2022/08/19 09:21:29;;;;;;;39.58;35.38;;;;;;;21.08;83.04;101322.66;5223517;28;20041;-80
2022/08/19 09:24:02;;;;;;;40.70;36.47;;;;;;;21.20;81.19;101323.84;5189813;28;20034;-79
2022/08/19 09:26:34;;;;;;;39.00;35.10;;;;;;;21.05;80.08;101334.25;5205070;28;20030;-79
2022/08/19 09:29:06;;;;;;;36.70;32.80;;;;;;;20.84;79.46;101337.94;5223183;28;20045;-77
2022/08/19 09:31:38;;;;;;;38.40;34.47;;;;;;;20.63;80.96;101350.34;5205842;28;20471;-78
2022/08/19 09:34:09;;;;;;;37.65;33.95;;;;;;;20.43;81.53;101344.19;5188681;28;20030;-79
2022/08/19 09:36:41;;;;;;;41.07;36.27;;;;;;;20.22;82.41;101341.56;5223110;28;20030;-78
2022/08/19 09:39:12;;;;;;;38.73;34.53;;;;;;;20.14;83.63;101337.53;5189572;28;20509;-79
2022/08/19 09:41:43;;;;;;;37.17;33.27;;;;;;;20.25;84.51;101343.19;5205187;28;20060;-79
2022/08/19 09:44:15;;;;;;;38.87;34.77;;;;;;;20.27;83.48;101348.44;5204992;28;20025;-79
2022/08/19 09:46:47;;;;;;;43.40;35.78;;;;;;;20.30;82.70;101335.06;5222460;28;20054;-79
2022/08/19 09:49:21;;;;;;;40.53;35.57;;;;;;;20.48;83.50;101336.00;5223311;28;20113;-78
2022/08/19 09:51:55;;;;;;;46.40;36.50;;;;;;;20.68;82.39;101338.63;5222621;28;20053;-78
2022/08/19 09:54:28;;;;;;;38.17;34.08;;;;;;;20.77;81.29;101350.63;5222768;28;20483;-78
2022/08/19 09:57:00;;;;;;;;;;;;;;;20.98;81.39;101346.09;5223699;28;20033;-80
2022/08/19 09:59:32;;;;;;;38.80;34.50;;;;;;;20.83;80.39;101341.50;5222283;28;20358;-80
2022/08/19 10:02:03;;;;;;;37.10;32.50;;;;;;;20.67;81.34;101339.59;5222035;28;20030;-80
2022/08/19 10:07:24;;;;;;;38.65;33.20;;;;;;;20.60;81.43;101351.34;5223241;28;20069;-80
2022/08/19 10:09:56;;;;;;;37.93;33.83;;;;;;;20.83;82.17;101349.44;5223319;28;20058;-79
2022/08/19 10:12:27;;;;;;;37.20;33.25;;;;;;;21.02;80.71;101354.75;5222087;28;20387;-80
2022/08/19 10:14:59;;;;;;;35.67;31.17;;;;;;;21.21;81.21;101358.22;5223020;28;20416;-81
2022/08/19 10:17:33;;;;;;;39.72;34.80;;;;;;;21.05;80.35;101352.81;5222131;28;20072;-81
2022/08/19 10:20:04;;;;;;;37.15;32.17;;;;;;;20.99;80.11;101346.94;5222516;28;20485;-80
2022/08/19 10:22:37;;;;;;;37.25;33.10;;;;;;;20.98;80.71;101347.88;5222365;28;20034;-80
2022/08/19 10:25:08;;;;;;;36.78;32.50;;;;;;;21.01;80.21;101348.59;5204319;28;20034;-81
2022/08/19 10:27:40;;;;;;;40.13;32.30;;;;;;;21.11;79.41;101341.91;5221875;28;20383;-79
2022/08/19 10:30:12;;;;;;;39.17;31.65;;;;;;;21.38;79.11;101344.16;5204900;28;20184;-80
2022/08/19 10:32:45;;;;;;;;;;;;;;;21.52;76.26;101348.78;5223143;28;20128;-77
2022/08/19 10:35:17;;;;;;;;;;;;;;;21.52;77.84;101343.50;5222889;28;19917;-80
2022/08/19 10:37:48;;;;;;;38.70;30.77;;;;;;;21.41;78.16;101340.47;5222291;28;20270;-82
2022/08/19 10:40:19;;;;;;;40.07;32.10;;;;;;;21.64;78.68;101344.69;5222117;28;20038;-81
2022/08/19 10:42:51;;;;;;;40.10;32.43;;;;;;;21.67;76.49;101342.72;5222111;28;20044;-80
2022/08/19 10:45:25;;;;;;;34.57;30.77;;;;;;;21.87;77.08;101340.84;5204030;28;20038;-81
2022/08/19 10:47:57;;;;;;;34.25;30.52;;;;;;;21.96;75.89;101343.03;5221532;28;20072;-79
2022/08/19 10:53:19;;;;;;;30.88;27.75;;;;;;;22.53;75.21;101339.19;5221818;28;20065;-79
2022/08/19 10:58:41;;;;;;;30.73;27.42;;;;;;;22.82;72.57;101334.94;5221569;28;20042;-79
2022/08/19 11:01:12;;;;;;;32.58;28.67;;;;;;;22.77;70.67;101331.69;5221281;28;20038;-80
2022/08/19 11:03:45;;;;;;;33.93;28.13;;;;;;;22.97;74.68;101324.38;5221080;28;20121;-79
2022/08/19 11:06:16;;;;;;;;;;;;;;;23.10;70.76;101325.44;5221631;28;20034;-80
2022/08/19 11:08:47;;;;;;;32.97;29.43;;;;;;;22.66;72.22;101336.72;5220879;28;20016;-79
2022/08/19 11:11:19;;;;;;;33.10;28.63;;;;;;;22.47;72.85;101336.88;5203388;28;20062;-79
2022/08/19 11:13:50;;;;;;;38.40;34.35;;;;;;;22.28;70.89;101339.63;5221125;28;20033;-79
2022/08/19 11:16:25;;;;;;;40.70;33.80;;;;;;;22.13;71.42;101328.88;5221535;28;20038;-81
2022/08/19 11:18:58;;;;;;;43.42;36.20;;;;;;;22.32;74.18;101331.44;5220885;28;20129;-80
2022/08/19 11:21:34;;;;;;;41.17;36.65;;;;;;;22.55;72.47;101339.97;5221008;28;20026;-79
2022/08/19 11:24:11;;;;;;;40.47;36.25;;;;;;;22.69;71.26;101339.22;5220821;28;20076;-78
2022/08/19 11:26:43;;;;;;;39.33;35.10;;;;;;;23.07;70.48;101336.22;5203883;28;20036;-79
2022/08/19 11:29:18;;;;;;;38.58;34.75;;;;;;;23.05;68.55;101338.09;5220797;28;20042;-80
2022/08/19 11:31:50;;;;;;;37.78;32.45;;;;;;;23.72;72.82;101327.19;5220601;28;20525;-80
2022/08/19 11:34:25;;;;;;;34.37;31.03;;;;;;;24.88;66.61;101319.16;5202276;28;20069;-80
2022/08/19 11:36:59;;;;;;;33.67;30.13;;;;;;;25.07;62.71;101318.81;5220933;28;20025;-80
2022/08/19 11:39:32;;;;;;;33.50;30.00;;;;;;;25.52;62.52;101313.22;5220643;28;20052;-80
2022/08/19 11:42:54;;;;;;;33.03;29.48;;;;;;;25.58;62.29;101306.59;5220207;28;20080;-80
2022/08/19 11:44:57;;;;;;;27.35;24.63;;;;;;;25.43;63.36;101306.66;5205805;28;20041;-81
2022/08/19 11:47:30;;;;;;;29.20;26.30;;;;;;;25.22;59.50;101305.41;5186532;28;20103;-80
2022/08/19 11:50:02;;;;;;;29.60;26.00;;;;;;;25.28;61.40;101303.22;5202805;28;20038;-81
2022/08/19 11:52:33;;;;;;;28.80;25.80;;;;;;;25.22;61.31;101305.41;5202391;28;20121;-80
2022/08/19 11:55:05;;;;;;;27.47;24.57;;;;;;;25.62;64.52;101310.78;5220744;28;20041;-79
2022/08/19 11:57:36;;;;;;;;;;;;;;;26.33;64.07;101319.25;5220893;28;20273;-79
2022/08/19 12:00:10;;;;;;;26.63;24.00;;;;;;;25.91;60.53;101303.41;5220533;28;19918;-79